Observation data for Tulia on 09/20/2020      Previous  Date  Next       Current Mesonet Observations  Soil Data  Daily Summary Page  Observations in Plain Language
KTIS 200500Z 16009KT 16/10 A3021 RMK A01 T01590100  RH  070%=      5-min Rain = 0
KTIS 200505Z 16010KT 16/10 A3021 RMK A01 T01570100  RH  071%=      5-min Rain = 0
KTIS 200510Z 16010KT 16/10 A3021 RMK A01 T01570100  RH  071%=      5-min Rain = 0
KTIS 200515Z 16011KT 16/10 A3021 RMK A01 T01590102  RH  071%=      5-min Rain = 0
KTIS 200520Z 16011KT 16/10 A3021 RMK A01 T01600103  RH  071%=      5-min Rain = 0
KTIS 200525Z 17011KT 16/10 A3021 RMK A01 T01610104  RH  071%=      5-min Rain = 0
KTIS 200530Z 17010KT 16/10 A3021 RMK A01 T01600104  RH  072%=      5-min Rain = 0
KTIS 200535Z 17009KT 16/10 A3021 RMK A01 T01600104  RH  072%=      5-min Rain = 0
KTIS 200540Z 17010KT 16/10 A3021 RMK A01 T01590104  RH  072%=      5-min Rain = 0
KTIS 200545Z 17009KT 16/10 A3021 RMK A01 T01590104  RH  072%=      5-min Rain = 0
KTIS 200550Z 17009KT 16/10 A3021 RMK A01 T01570104  RH  073%=      5-min Rain = 0
KTIS 200555Z 17009KT 16/10 A302 RMK A01 T01550104  RH  074%=      5-min Rain = 0
KTIS 200600Z 16009KT 16/10 A302 RMK A01 T01550104  RH  074%=      5-min Rain = 0
KTIS 200605Z 16009KT 15/10 A302 RMK A01 T01530103  RH  075%=      5-min Rain = 0
KTIS 200610Z 16009KT 15/10 A302 RMK A01 T01510103  RH  075%=      5-min Rain = 0
KTIS 200615Z 16009KT 15/10 A302 RMK A01 T01500103  RH  076%=      5-min Rain = 0
KTIS 200620Z 16009KT 15/10 A302 RMK A01 T01490102  RH  076%=      5-min Rain = 0
KTIS 200625Z 16008KT 15/10 A302 RMK A01 T01470102  RH  077%=      5-min Rain = 0
KTIS 200630Z 16008KT 15/10 A302 RMK A01 T01460102  RH  077%=      5-min Rain = 0
KTIS 200635Z 17008KT 15/10 A302 RMK A01 T01450102  RH  078%=      5-min Rain = 0
KTIS 200640Z 17007KT 14/10 A302 RMK A01 T01430101  RH  078%=      5-min Rain = 0
KTIS 200645Z 17006KT 14/10 A302 RMK A01 T01420100  RH  078%=      5-min Rain = 0
KTIS 200650Z 17006KT 14/10 A302 RMK A01 T01410099  RH  078%=      5-min Rain = 0
KTIS 200655Z 17007KT 14/10 A302 RMK A01 T01400098  RH  079%=      5-min Rain = 0
KTIS 200700Z 17008KT 14/10 A302 RMK A01 T01390098  RH  079%=      5-min Rain = 0
KTIS 200705Z 17008KT 14/10 A302 RMK A01 T01380098  RH  079%=      5-min Rain = 0
KTIS 200710Z 17008KT 14/10 A302 RMK A01 T01380098  RH  079%=      5-min Rain = 0
KTIS 200715Z 17008KT 14/10 A302 RMK A01 T01380098  RH  079%=      5-min Rain = 0
KTIS 200720Z 17008KT 14/10 A302 RMK A01 T01380098  RH  079%=      5-min Rain = 0
KTIS 200725Z 17008KT 14/10 A302 RMK A01 T01380098  RH  079%=      5-min Rain = 0
KTIS 200730Z 17008KT 14/10 A302 RMK A01 T01370097  RH  079%=      5-min Rain = 0
KTIS 200735Z 17007KT 14/10 A302 RMK A01 T01350096  RH  080%=      5-min Rain = 0
KTIS 200740Z 18007KT 13/10 A302 RMK A01 T01340096  RH  080%=      5-min Rain = 0
KTIS 200745Z 17007KT 13/10 A302 RMK A01 T01320095  RH  081%=      5-min Rain = 0
KTIS 200750Z 17008KT 13/10 A302 RMK A01 T01310095  RH  081%=      5-min Rain = 0
KTIS 200755Z 17007KT 13/10 A302 RMK A01 T01310095  RH  081%=      5-min Rain = 0
KTIS 200800Z 16007KT 13/10 A302 RMK A01 T01310096  RH  082%=      5-min Rain = 0
KTIS 200805Z 16007KT 13/10 A302 RMK A01 T01300095  RH  082%=      5-min Rain = 0
KTIS 200810Z 16007KT 13/09 A302 RMK A01 T01280094  RH  082%=      5-min Rain = 0
KTIS 200815Z 16006KT 13/09 A302 RMK A01 T01260093  RH  083%=      5-min Rain = 0
KTIS 200820Z 16007KT 13/09 A302 RMK A01 T01250093  RH  084%=      5-min Rain = 0
KTIS 200825Z 17006KT 12/09 A302 RMK A01 T01240093  RH  084%=      5-min Rain = 0
KTIS 200830Z 17005KT 13/09 A302 RMK A01 T01250092  RH  083%=      5-min Rain = 0
KTIS 200835Z 18006KT 12/09 A302 RMK A01 T01230090  RH  083%=      5-min Rain = 0
KTIS 200840Z 18006KT 12/09 A302 RMK A01 T01210088  RH  083%=      5-min Rain = 0
KTIS 200845Z 18006KT 12/09 A302 RMK A01 T01200088  RH  083%=      5-min Rain = 0
KTIS 200850Z 18004KT 12/09 A302 RMK A01 T01180086  RH  083%=      5-min Rain = 0
KTIS 200855Z 18004KT 12/08 A302 RMK A01 T01150084  RH  084%=      5-min Rain = 0
KTIS 200900Z 19004KT 11/08 A302 RMK A01 T01140083  RH  084%=      5-min Rain = 0
KTIS 200905Z 19005KT 11/08 A302 RMK A01 T01110081  RH  084%=      5-min Rain = 0
KTIS 200910Z 18006KT 11/08 A302 RMK A01 T01100081  RH  085%=      5-min Rain = 0
KTIS 200915Z 17006KT 11/08 A302 RMK A01 T01100083  RH  086%=      5-min Rain = 0
KTIS 200920Z 18006KT 11/09 A302 RMK A01 T01120085  RH  086%=      5-min Rain = 0
KTIS 200925Z 18007KT 11/08 A302 RMK A01 T01110083  RH  085%=      5-min Rain = 0
KTIS 200930Z 18007KT 11/08 A302 RMK A01 T01110083  RH  085%=      5-min Rain = 0
KTIS 200935Z 18006KT 11/08 A302 RMK A01 T01100083  RH  086%=      5-min Rain = 0
KTIS 200940Z 18006KT 11/08 A302 RMK A01 T01090082  RH  086%=      5-min Rain = 0
KTIS 200945Z 18006KT 11/08 A302 RMK A01 T01080082  RH  086%=      5-min Rain = 0
KTIS 200950Z 18006KT 11/08 A302 RMK A01 T01070081  RH  087%=      5-min Rain = 0
KTIS 200955Z 19006KT 11/08 A302 RMK A01 T01060080  RH  086%=      5-min Rain = 0
KTIS 201000Z 19006KT 10/08 A302 RMK A01 T01040078  RH  086%=      5-min Rain = 0
KTIS 201005Z 19006KT 10/08 A302 RMK A01 T01040077  RH  086%=      5-min Rain = 0
KTIS 201010Z 19007KT 10/08 A302 RMK A01 T01040078  RH  086%=      5-min Rain = 0
KTIS 201015Z 19006KT 10/08 A302 RMK A01 T01040078  RH  086%=      5-min Rain = 0
KTIS 201020Z 19006KT 10/08 A302 RMK A01 T01030076  RH  086%=      5-min Rain = 0
KTIS 201025Z 21005KT 10/08 A302 RMK A01 T01010075  RH  086%=      5-min Rain = 0
KTIS 201030Z 21006KT 10/08 A3021 RMK A01 T01020076  RH  086%=      5-min Rain = 0
KTIS 201035Z 19007KT 10/08 A302 RMK A01 T01040077  RH  086%=      5-min Rain = 0
KTIS 201040Z 19006KT 10/08 A3021 RMK A01 T01020075  RH  085%=      5-min Rain = 0
KTIS 201045Z 20006KT 10/07 A3021 RMK A01 T01010073  RH  085%=      5-min Rain = 0
KTIS 201050Z 20006KT 10/08 A3021 RMK A01 T01030076  RH  086%=      5-min Rain = 0
KTIS 201055Z 20007KT 10/08 A3021 RMK A01 T01040078  RH  086%=      5-min Rain = 0
KTIS 201100Z 20007KT 11/08 A3021 RMK A01 T01060079  RH  086%=      5-min Rain = 0
KTIS 201105Z 20007KT 11/08 A3021 RMK A01 T01060079  RH  086%=      5-min Rain = 0
KTIS 201110Z 20006KT 11/08 A3021 RMK A01 T01050078  RH  085%=      5-min Rain = 0
KTIS 201115Z 20006KT 10/08 A3021 RMK A01 T01040078  RH  086%=      5-min Rain = 0
KTIS 201120Z 20007KT 11/08 A3021 RMK A01 T01050079  RH  086%=      5-min Rain = 0
KTIS 201125Z 20006KT 10/08 A3021 RMK A01 T01030077  RH  086%=      5-min Rain = 0
KTIS 201130Z 20006KT 11/08 A3021 RMK A01 T01050080  RH  087%=      5-min Rain = 0
KTIS 201135Z 20006KT 11/08 A3021 RMK A01 T01050079  RH  086%=      5-min Rain = 0
KTIS 201140Z 21007KT 11/08 A3022 RMK A01 T01050079  RH  086%=      5-min Rain = 0
KTIS 201145Z 20007KT 11/08 A3022 RMK A01 T01070081  RH  087%=      5-min Rain = 0
KTIS 201150Z 20007KT 10/08 A3022 RMK A01 T01040078  RH  086%=      5-min Rain = 0
KTIS 201155Z 20007KT 10/08 A3022 RMK A01 T01020077  RH  087%=      5-min Rain = 0
KTIS 201200Z 21006KT 10/08 A3022 RMK A01 T01020078  RH  087%=      5-min Rain = 0
KTIS 201205Z 21007KT 10/08 A3022 RMK A01 T01040080  RH  088%=      5-min Rain = 0
KTIS 201210Z 21007KT 11/08 A3022 RMK A01 T01070083  RH  088%=      5-min Rain = 0
KTIS 201215Z 21007KT 11/08 A3022 RMK A01 T01090084  RH  087%=      5-min Rain = 0
KTIS 201220Z 20007KT 11/09 A3022 RMK A01 T01100085  RH  087%=      5-min Rain = 0
KTIS 201225Z 20007KT 11/08 A3022 RMK A01 T01090084  RH  087%=      5-min Rain = 0
KTIS 201230Z 20007KT 11/08 A3022 RMK A01 T01080083  RH  088%=      5-min Rain = 0
KTIS 201235Z 20007KT 11/08 A3022 RMK A01 T01050081  RH  088%=      5-min Rain = 0
KTIS 201240Z 20007KT 10/08 A3022 RMK A01 T01030080  RH  088%=      5-min Rain = 0
KTIS 201245Z 19007KT 10/08 A3022 RMK A01 T01020080  RH  089%=      5-min Rain = 0
KTIS 201250Z 19007KT 10/08 A3022 RMK A01 T01040083  RH  089%=      5-min Rain = 0
KTIS 201255Z 19006KT 11/08 A3022 RMK A01 T01060084  RH  089%=      5-min Rain = 0
KTIS 201300Z 19006KT 11/09 A3022 RMK A01 T01070085  RH  089%=      5-min Rain = 0
KTIS 201305Z 19006KT 11/09 A3022 RMK A01 T01070085  RH  089%=      5-min Rain = 0
KTIS 201310Z 20006KT 11/08 A3022 RMK A01 T01060084  RH  089%=      5-min Rain = 0
KTIS 201315Z 20006KT 11/08 A3022 RMK A01 T01060084  RH  089%=      5-min Rain = 0
KTIS 201320Z 20007KT 11/09 A3022 RMK A01 T01080085  RH  089%=      5-min Rain = 0
KTIS 201325Z 19007KT 11/09 A3023 RMK A01 T01110088  RH  088%=      5-min Rain = 0
KTIS 201330Z 20006KT 11/09 A3023 RMK A01 T01140090  RH  088%=      5-min Rain = 0
KTIS 201335Z 19006KT 12/09 A3023 RMK A01 T01170092  RH  087%=      5-min Rain = 0
KTIS 201340Z 19007KT 12/09 A3023 RMK A01 T01200094  RH  086%=      5-min Rain = 0
KTIS 201345Z 19006KT 12/09 A3023 RMK A01 T01220094  RH  086%=      5-min Rain = 0
KTIS 201350Z 19007KT 12/10 A3024 RMK A01 T01240095  RH  085%=      5-min Rain = 0
KTIS 201355Z 19007KT 13/10 A3024 RMK A01 T01270097  RH  085%=      5-min Rain = 0
KTIS 201400Z 19007KT 13/10 A3024 RMK A01 T01300099  RH  084%=      5-min Rain = 0
KTIS 201405Z 20007KT 13/10 A3024 RMK A01 T01340101  RH  083%=      5-min Rain = 0
KTIS 201410Z 19006KT 14/10 A3024 RMK A01 T01380102  RH  082%=      5-min Rain = 0
KTIS 201415Z 19007KT 14/10 A3024 RMK A01 T01420104  RH  080%=      5-min Rain = 0
KTIS 201420Z 19006KT 15/11 A3024 RMK A01 T01480106  RH  079%=      5-min Rain = 0
KTIS 201425Z 19007KT 15/11 A3024 RMK A01 T01520108  RH  077%=      5-min Rain = 0
KTIS 201430Z 20009KT 16/11 A3024 RMK A01 T01570109  RH  076%=      5-min Rain = 0
KTIS 201435Z 20010KT 16/11 A3024 RMK A01 T01600110  RH  075%=      5-min Rain = 0
KTIS 201440Z 20010KT 16/11 A3024 RMK A01 T01630111  RH  074%=      5-min Rain = 0
KTIS 201445Z 20011KT 17/11 A3024 RMK A01 T01680111  RH  072%=      5-min Rain = 0
KTIS 201450Z 21010KT 17/11 A3024 RMK A01 T01720113  RH  070%=      5-min Rain = 0
KTIS 201455Z 20011KT 17/11 A3024 RMK A01 T01740112  RH  069%=      5-min Rain = 0
KTIS 201500Z 20012KT 18/11 A3025 RMK A01 T01760112  RH  068%=      5-min Rain = 0
KTIS 201505Z 21012KT 18/11 A3025 RMK A01 T01790111  RH  067%=      5-min Rain = 0
KTIS 201510Z 20013KT 18/11 A3025 RMK A01 T01800111  RH  066%=      5-min Rain = 0
KTIS 201515Z 20012KT 18/11 A3025 RMK A01 T01840111  RH  065%=      5-min Rain = 0
KTIS 201520Z 20012KT 19/11 A3025 RMK A01 T01860111  RH  064%=      5-min Rain = 0
KTIS 201525Z 21011KT 19/11 A3025 RMK A01 T01880112  RH  063%=      5-min Rain = 0
KTIS 201530Z 22011KT 19/11 A3025 RMK A01 T01910112  RH  062%=      5-min Rain = 0
KTIS 201535Z 20012KT 19/11 A3025 RMK A01 T01930112  RH  061%=      5-min Rain = 0
KTIS 201540Z 20011KT 19/11 A3025 RMK A01 T01940111  RH  061%=      5-min Rain = 0
KTIS 201545Z 20011KT 20/11 A3025 RMK A01 T01970112  RH  060%=      5-min Rain = 0
KTIS 201550Z 19012KT 20/11 A3025 RMK A01 T02000111  RH  058%=      5-min Rain = 0
KTIS 201555Z 20011KT 20/11 A3025 RMK A01 T02020112  RH  058%=      5-min Rain = 0
KTIS 201600Z 19012KT 21/11 A3025 RMK A01 T02060112  RH  057%=      5-min Rain = 0
KTIS 201605Z 20012KT 20/11 A3025 RMK A01 T02020111  RH  058%=      5-min Rain = 0
KTIS 201610Z 19012KT 21/11 A3025 RMK A01 T02060111  RH  057%=      5-min Rain = 0
KTIS 201615Z 19011KT 21/11 A3025 RMK A01 T02100113  RH  056%=      5-min Rain = 0
KTIS 201620Z 19012KT 21/11 A3025 RMK A01 T02130113  RH  055%=      5-min Rain = 0
KTIS 201625Z 19012KT 21/11 A3025 RMK A01 T02140114  RH  055%=      5-min Rain = 0
KTIS 201630Z 20012KT 21/11 A3025 RMK A01 T02140114  RH  055%=      5-min Rain = 0
KTIS 201635Z 19011KT 22/12 A3025 RMK A01 T02160115  RH  055%=      5-min Rain = 0
KTIS 201640Z 20010KT 22/12 A3025 RMK A01 T02190116  RH  054%=      5-min Rain = 0
KTIS 201645Z 20011KT 22/12 A3025 RMK A01 T02200116  RH  053%=      5-min Rain = 0
KTIS 201650Z 19011KT 22/12 A3025 RMK A01 T02220116  RH  053%=      5-min Rain = 0
KTIS 201655Z 21010KT 22/12 A3024 RMK A01 T02230116  RH  052%=      5-min Rain = 0
KTIS 201700Z 19010KT 23/12 A3024 RMK A01 T02280118  RH  051%=      5-min Rain = 0
KTIS 201705Z 19010KT 23/12 A3024 RMK A01 T02310117  RH  050%=      5-min Rain = 0
KTIS 201710Z 17010KT 23/12 A3024 RMK A01 T02300117  RH  051%=      5-min Rain = 0
KTIS 201715Z 19010KT 23/12 A3024 RMK A01 T02320117  RH  050%=      5-min Rain = 0
KTIS 201720Z 19010KT 24/12 A3023 RMK A01 T02350118  RH  049%=      5-min Rain = 0
KTIS 201725Z 19009KT 24/12 A3023 RMK A01 T02360116  RH  048%=      5-min Rain = 0
KTIS 201730Z 19009G14KT 24/12 A3023 RMK A01 T02380116  RH  048%=      5-min Rain = 0
KTIS 201735Z 19010KT 24/12 A3023 RMK A01 T02380116  RH  048%=      5-min Rain = 0
KTIS 201740Z 18009KT 24/12 A3023 RMK A01 T02380115  RH  047%=      5-min Rain = 0
KTIS 201745Z 16010G16KT 24/11 A3022 RMK A01 T02410114  RH  047%=      5-min Rain = 0
KTIS 201750Z 19008KT 24/11 A3022 RMK A01 T02440113  RH  045%=      5-min Rain = 0
KTIS 201755Z 18008KT 25/11 A3022 RMK A01 T02450111  RH  045%=      5-min Rain = 0
KTIS 201800Z 19009KT 25/11 A3022 RMK A01 T02490105  RH  042%=      5-min Rain = 0
KTIS 201805Z 20009KT 25/11 A3022 RMK A01 T02480108  RH  043%=      5-min Rain = 0
KTIS 201810Z 19009KT 25/11 A3022 RMK A01 T02490105  RH  041%=      5-min Rain = 0
KTIS 201815Z 19010G15KT 25/11 A3021 RMK A01 T02500109  RH  043%=      5-min Rain = 0
KTIS 201820Z 20009G14KT 25/11 A3021 RMK A01 T02530108  RH  042%=      5-min Rain = 0
KTIS 201825Z 19008KT 25/11 A3021 RMK A01 T02540110  RH  042%=      5-min Rain = 0
KTIS 201830Z 18009G21KT 26/11 A3021 RMK A01 T02570111  RH  041%=      5-min Rain = 0
KTIS 201835Z 19010G15KT 26/11 A3021 RMK A01 T02600109  RH  040%=      5-min Rain = 0
KTIS 201840Z 17010KT 26/10 A302 RMK A01 T02620104  RH  038%=      5-min Rain = 0
KTIS 201845Z 18009KT 26/10 A302 RMK A01 T02630097  RH  036%=      5-min Rain = 0
KTIS 201850Z 16011KT 27/10 A302 RMK A01 T02650101  RH  037%=      5-min Rain = 0
KTIS 201855Z 16009G15KT 27/10 A302 RMK A01 T02670099  RH  036%=      5-min Rain = 0
KTIS 201900Z 17010G15KT 27/10 A302 RMK A01 T02660103  RH  037%=      5-min Rain = 0
KTIS 201905Z 19010KT 27/10 A302 RMK A01 T02660100  RH  036%=      5-min Rain = 0
KTIS 201910Z 18009G14KT 27/10 A3019 RMK A01 T02670101  RH  036%=      5-min Rain = 0
KTIS 201915Z 16009KT 27/10 A3019 RMK A01 T02690099  RH  035%=      5-min Rain = 0
KTIS 201920Z 16009KT 27/10 A3019 RMK A01 T02690096  RH  035%=      5-min Rain = 0
KTIS 201925Z 16010G15KT 27/09 A3019 RMK A01 T02700092  RH  034%=      5-min Rain = 0
KTIS 201930Z 19010KT 27/08 A3019 RMK A01 T02700084  RH  032%=      5-min Rain = 0
KTIS 201935Z 19009KT 27/09 A3018 RMK A01 T02730091  RH  033%=      5-min Rain = 0
KTIS 201940Z 20011G16KT 28/08 A3018 RMK A01 T02760084  RH  031%=      5-min Rain = 0
KTIS 201945Z 19008KT 28/09 A3018 RMK A01 T02750086  RH  031%=      5-min Rain = 0
KTIS 201950Z 15009KT 28/09 A3018 RMK A01 T02780086  RH  031%=      5-min Rain = 0
KTIS 201955Z 14011KT 28/09 A3017 RMK A01 T02770085  RH  031%=      5-min Rain = 0
KTIS 202000Z 17008KT 28/09 A3017 RMK A01 T02780092  RH  032%=      5-min Rain = 0
KTIS 202005Z 17010G15KT 28/08 A3017 RMK A01 T02790083  RH  030%=      5-min Rain = 0
KTIS 202010Z 16009KT 28/08 A3017 RMK A01 T02790079  RH  029%=      5-min Rain = 0
KTIS 202015Z 15011KT 28/08 A3017 RMK A01 T02810079  RH  029%=      5-min Rain = 0
KTIS 202020Z 15012G17KT 28/08 A3016 RMK A01 T02820079  RH  029%=      5-min Rain = 0
KTIS 202025Z 16010G16KT 28/08 A3016 RMK A01 T02800084  RH  030%=      5-min Rain = 0
KTIS 202030Z 15010KT 28/09 A3016 RMK A01 T02840085  RH  030%=      5-min Rain = 0
KTIS 202035Z 15011G18KT 28/09 A3016 RMK A01 T02840086  RH  030%=      5-min Rain = 0
KTIS 202040Z 14011G17KT 28/09 A3016 RMK A01 T02840086  RH  030%=      5-min Rain = 0
KTIS 202045Z 16011G16KT 28/08 A3016 RMK A01 T02840083  RH  029%=      5-min Rain = 0
KTIS 202050Z 17010G16KT 29/08 A3016 RMK A01 T02860080  RH  028%=      5-min Rain = 0
KTIS 202055Z 17010G16KT 28/08 A3015 RMK A01 T02840083  RH  029%=      5-min Rain = 0
KTIS 202100Z 17011KT 29/08 A3015 RMK A01 T02860080  RH  028%=      5-min Rain = 0
KTIS 202105Z 17010G16KT 29/08 A3015 RMK A01 T02870075  RH  027%=      5-min Rain = 0
KTIS 202110Z 17012KT 29/08 A3015 RMK A01 T02860077  RH  028%=      5-min Rain = 0
KTIS 202115Z 16010KT 29/08 A3015 RMK A01 T02850075  RH  027%=      5-min Rain = 0
KTIS 202120Z 16009G15KT 29/08 A3015 RMK A01 T02870078  RH  028%=      5-min Rain = 0
KTIS 202125Z 15010KT 29/08 A3015 RMK A01 T02900076  RH  027%=      5-min Rain = 0
KTIS 202130Z 14012G18KT 29/07 A3015 RMK A01 T02890073  RH  026%=      5-min Rain = 0
KTIS 202135Z 15011KT 29/07 A3015 RMK A01 T02870071  RH  026%=      5-min Rain = 0
KTIS 202140Z 15011G18KT 29/07 A3015 RMK A01 T02860068  RH  026%=      5-min Rain = 0
KTIS 202145Z 16012KT 29/06 A3015 RMK A01 T02870059  RH  024%=      5-min Rain = 0
KTIS 202150Z 17011KT 29/07 A3015 RMK A01 T02890066  RH  025%=      5-min Rain = 0
KTIS 202155Z 15011KT 29/07 A3015 RMK A01 T02870069  RH  026%=      5-min Rain = 0
KTIS 202200Z 17011KT 29/07 A3015 RMK A01 T02870074  RH  027%=      5-min Rain = 0
KTIS 202205Z 16011KT 29/07 A3015 RMK A01 T02880073  RH  026%=      5-min Rain = 0
KTIS 202210Z 15013KT 29/07 A3014 RMK A01 T02850073  RH  027%=      5-min Rain = 0
KTIS 202215Z 15014KT 28/07 A3015 RMK A01 T02830071  RH  027%=      5-min Rain = 0
KTIS 202220Z 16014G19KT 28/07 A3015 RMK A01 T02840073  RH  027%=      5-min Rain = 0
KTIS 202225Z 14011KT 28/07 A3014 RMK A01 T02820074  RH  027%=      5-min Rain = 0
KTIS 202230Z 16012G17KT 28/07 A3014 RMK A01 T02820071  RH  027%=      5-min Rain = 0
KTIS 202235Z 16011G16KT 28/07 A3014 RMK A01 T02810069  RH  027%=      5-min Rain = 0
KTIS 202240Z 15011G17KT 28/07 A3014 RMK A01 T02800072  RH  028%=      5-min Rain = 0
KTIS 202245Z 15012KT 28/07 A3014 RMK A01 T02800070  RH  027%=      5-min Rain = 0
KTIS 202250Z 16011KT 28/07 A3014 RMK A01 T02800070  RH  027%=      5-min Rain = 0
KTIS 202255Z 16011KT 28/07 A3014 RMK A01 T02790069  RH  027%=      5-min Rain = 0
KTIS 202300Z 15010KT 28/07 A3014 RMK A01 T02770072  RH  028%=      5-min Rain = 0
KTIS 202305Z 15011KT 28/07 A3014 RMK A01 T02760071  RH  028%=      5-min Rain = 0
KTIS 202310Z 14011KT 27/07 A3014 RMK A01 T02740068  RH  028%=      5-min Rain = 0
KTIS 202315Z 16011KT 27/07 A3014 RMK A01 T02740068  RH  028%=      5-min Rain = 0
KTIS 202320Z 16009KT 27/07 A3015 RMK A01 T02730066  RH  028%=      5-min Rain = 0
KTIS 202325Z 16012KT 27/07 A3015 RMK A01 T02710067  RH  028%=      5-min Rain = 0
KTIS 202330Z 16010KT 27/07 A3015 RMK A01 T02700071  RH  029%=      5-min Rain = 0
KTIS 202335Z 15011KT 27/07 A3015 RMK A01 T02690074  RH  030%=      5-min Rain = 0
KTIS 202340Z 16011KT 27/08 A3015 RMK A01 T02670076  RH  031%=      5-min Rain = 0
KTIS 202345Z 16011KT 27/08 A3015 RMK A01 T02660076  RH  031%=      5-min Rain = 0
KTIS 202350Z 16012KT 26/08 A3015 RMK A01 T02640075  RH  031%=      5-min Rain = 0
KTIS 202355Z 16012KT 26/07 A3015 RMK A01 T02620074  RH  031%=      5-min Rain = 0
KTIS 210000Z 16010KT 26/07 A3015 RMK A01 T02600074  RH  031%=      5-min Rain = 0
KTIS 210005Z 16011KT 26/07 A3015 RMK A01 T02580072  RH  032%=      5-min Rain = 0
KTIS 210010Z 16011KT 26/07 A3015 RMK A01 T02560071  RH  032%=      5-min Rain = 0
KTIS 210015Z 16010KT 25/07 A3015 RMK A01 T02530070  RH  032%=      5-min Rain = 0
KTIS 210020Z 16009KT 25/07 A3015 RMK A01 T02500070  RH  033%=      5-min Rain = 0
KTIS 210025Z 16008KT 25/07 A3015 RMK A01 T02450070  RH  033%=      5-min Rain = 0
KTIS 210030Z 16008KT 24/07 A3016 RMK A01 T02410069  RH  034%=      5-min Rain = 0
KTIS 210035Z 16008KT 24/07 A3016 RMK A01 T02370069  RH  035%=      5-min Rain = 0
KTIS 210040Z 16008KT 23/07 A3015 RMK A01 T02330069  RH  036%=      5-min Rain = 0
KTIS 210045Z 16008KT 23/07 A3015 RMK A01 T02280070  RH  037%=      5-min Rain = 0
KTIS 210050Z 16008KT 23/07 A3015 RMK A01 T02250071  RH  038%=      5-min Rain = 0
KTIS 210055Z 16008KT 22/07 A3015 RMK A01 T02210073  RH  039%=      5-min Rain = 0
KTIS 210100Z 16007KT 22/07 A3016 RMK A01 T02170073  RH  040%=      5-min Rain = 0
KTIS 210105Z 16007KT 21/07 A3016 RMK A01 T02130073  RH  041%=      5-min Rain = 0
KTIS 210110Z 16007KT 21/07 A3016 RMK A01 T02090073  RH  042%=      5-min Rain = 0
KTIS 210115Z 16008KT 21/07 A3016 RMK A01 T02080072  RH  042%=      5-min Rain = 0
KTIS 210120Z 16008KT 21/07 A3016 RMK A01 T02080071  RH  042%=      5-min Rain = 0
KTIS 210125Z 16008KT 21/07 A3016 RMK A01 T02070070  RH  042%=      5-min Rain = 0
KTIS 210130Z 16008KT 21/07 A3016 RMK A01 T02060069  RH  042%=      5-min Rain = 0
KTIS 210135Z 16008KT 20/07 A3017 RMK A01 T02030068  RH  042%=      5-min Rain = 0
KTIS 210140Z 16008KT 20/07 A3017 RMK A01 T02000067  RH  043%=      5-min Rain = 0
KTIS 210145Z 16008KT 20/07 A3017 RMK A01 T01980065  RH  043%=      5-min Rain = 0
KTIS 210150Z 16008KT 20/07 A3017 RMK A01 T01950065  RH  044%=      5-min Rain = 0
KTIS 210155Z 16008KT 19/06 A3017 RMK A01 T01920064  RH  044%=      5-min Rain = 0
KTIS 210200Z 16008KT 19/06 A3017 RMK A01 T01910064  RH  044%=      5-min Rain = 0
KTIS 210205Z 17009KT 19/06 A3018 RMK A01 T01900063  RH  044%=      5-min Rain = 0
KTIS 210210Z 16009KT 19/06 A3018 RMK A01 T01920063  RH  044%=      5-min Rain = 0
KTIS 210215Z 16009KT 19/06 A3018 RMK A01 T01910064  RH  045%=      5-min Rain = 0
KTIS 210220Z 16009KT 19/07 A3018 RMK A01 T01900065  RH  045%=      5-min Rain = 0
KTIS 210225Z 16009KT 19/07 A3018 RMK A01 T01900066  RH  046%=      5-min Rain = 0
KTIS 210230Z 13007KT 19/07 A3019 RMK A01 T01870067  RH  047%=      5-min Rain = 0
KTIS 210235Z 14007KT 18/06 A3019 RMK A01 T01810063  RH  047%=      5-min Rain = 0
KTIS 210240Z 14008KT 18/06 A3019 RMK A01 T01770063  RH  048%=      5-min Rain = 0
KTIS 210245Z 14008KT 18/06 A3019 RMK A01 T01750063  RH  049%=      5-min Rain = 0
KTIS 210250Z 13006KT 17/06 A3019 RMK A01 T01730063  RH  050%=      5-min Rain = 0
KTIS 210255Z 14007KT 17/06 A3019 RMK A01 T01690061  RH  050%=      5-min Rain = 0
KTIS 210300Z 14007KT 17/06 A3019 RMK A01 T01670063  RH  051%=      5-min Rain = 0
KTIS 210305Z 14007KT 17/07 A302 RMK A01 T01660065  RH  052%=      5-min Rain = 0
KTIS 210310Z 14007KT 17/07 A302 RMK A01 T01650066  RH  054%=      5-min Rain = 0
KTIS 210315Z 15007KT 16/07 A302 RMK A01 T01640067  RH  054%=      5-min Rain = 0
KTIS 210320Z 15008KT 16/07 A302 RMK A01 T01630068  RH  055%=      5-min Rain = 0
KTIS 210325Z 15007KT 16/07 A302 RMK A01 T01610068  RH  055%=      5-min Rain = 0
KTIS 210330Z 15007KT 16/07 A302 RMK A01 T01570067  RH  056%=      5-min Rain = 0
KTIS 210335Z 15006KT 15/07 A302 RMK A01 T01540067  RH  057%=      5-min Rain = 0
KTIS 210340Z 15006KT 15/07 A302 RMK A01 T01510067  RH  059%=      5-min Rain = 0
KTIS 210345Z 15005KT 15/07 A302 RMK A01 T01470066  RH  060%=      5-min Rain = 0
KTIS 210350Z 15006KT 14/07 A302 RMK A01 T01430066  RH  061%=      5-min Rain = 0
KTIS 210355Z 15006KT 14/07 A302 RMK A01 T01410066  RH  062%=      5-min Rain = 0
KTIS 210400Z 15006KT 14/07 A302 RMK A01 T01390065  RH  062%=      5-min Rain = 0
KTIS 210405Z 15006KT 14/07 A302 RMK A01 T01390065  RH  062%=      5-min Rain = 0
KTIS 210410Z 15005KT 14/07 A302 RMK A01 T01390065  RH  063%=      5-min Rain = 0
KTIS 210415Z 15005KT 14/07 A302 RMK A01 T01370066  RH  064%=      5-min Rain = 0
KTIS 210420Z 15005KT 14/07 A302 RMK A01 T01360066  RH  064%=      5-min Rain = 0
KTIS 210425Z 15006KT 14/07 A302 RMK A01 T01370066  RH  064%=      5-min Rain = 0
KTIS 210430Z 16006KT 14/07 A302 RMK A01 T01380065  RH  063%=      5-min Rain = 0
KTIS 210435Z 15006KT 14/07 A3021 RMK A01 T01360065  RH  064%=      5-min Rain = 0
KTIS 210440Z 15006KT 13/06 A3021 RMK A01 T01330064  RH  064%=      5-min Rain = 0
KTIS 210445Z 15005KT 13/06 A3021 RMK A01 T01310063  RH  065%=      5-min Rain = 0
KTIS 210450Z 15006KT 13/06 A3021 RMK A01 T01290064  RH  066%=      5-min Rain = 0
KTIS 210455Z 15006KT 13/06 A3021 RMK A01 T01290064  RH  066%=      5-min Rain = 0

Page generated in 0.0101 seconds.